Terminal Aerodrome Forecast
Issued by NWS Wilmington, OH

Home | Current Version | Previous Version | Text Only | Print | Product List | Glossary On
Versions: 1 2 3 4 5 6 7 8 9 10 11 12 13 14 15 16 17
000
FTUS41 KILN 270544
TAFDAY
TAF
KDAY 270544Z 2706/2806 16005KT P6SM SCT050 BKN250
     FM271300 21004KT P6SM SCT030 OVC060
     FM271600 24007KT P6SM -SHRA VCTS OVC035CB
     FM271800 24008KT 5SM SHRA BR VCTS OVC035CB
     FM272000 24006KT P6SM VCTS SCT035 OVC050CB
     FM272200 24004KT P6SM -SHRA OVC035
     FM280200 26005KT P6SM OVC022
     FM280500 VRB03KT P6SM OVC012=

USA.gov is the U.S. government's official web portal to all federal, state and local government web resources and services.